Time;durP1;ratioP1;P1;durP2;ratioP2;P2;SDS_P1;SDS_P2;PMS_P1;PMS_P2;Temp;Humidity;BMP_temperature;BMP_pressure;BME280_temperature;BME280_humidity;BME280_pressure;Samples;Min_cycle;Max_cycle;Signal;HPM_P1;HPM_P2
2022/06/19 00:01:08;;;;;;;14.30;2.10;;;14.80;99.90;;;;;;6147897;29;20504;-68
2022/06/19 00:04:09;;;;;;;15.73;2.88;;;14.80;99.90;;;;;;6149097;28;20527;-68
2022/06/19 00:07:12;;;;;;;13.45;2.25;;;14.80;99.90;;;;;;6149103;28;20043;-68
2022/06/19 00:10:14;;;;;;;15.15;3.05;;;14.80;99.90;;;;;;6149110;28;20058;-68
2022/06/19 00:13:18;;;;;;;13.80;2.58;;;14.80;99.90;;;;;;6147880;28;20074;-68
2022/06/19 00:16:20;;;;;;;17.75;2.90;;;14.80;99.90;;;;;;6148989;28;20055;-68
2022/06/19 00:19:22;;;;;;;19.17;2.67;;;14.80;99.90;;;;;;6153088;28;20050;-68
2022/06/19 00:22:24;;;;;;;15.60;2.58;;;14.70;99.90;;;;;;6152316;29;20061;-68
2022/06/19 00:25:26;;;;;;;17.00;3.03;;;14.70;99.90;;;;;;6153362;28;20058;-68
2022/06/19 00:28:29;;;;;;;20.77;2.85;;;14.70;99.90;;;;;;6152210;29;20074;-68
2022/06/19 00:31:31;;;;;;;16.48;2.80;;;14.70;99.90;;;;;;6133389;28;20055;-68
2022/06/19 00:34:33;;;;;;;16.92;2.80;;;14.60;99.90;;;;;;6129669;29;20044;-68
2022/06/19 00:37:35;;;;;;;15.95;2.58;;;14.70;99.90;;;;;;6135360;29;20062;-68
2022/06/19 00:40:37;;;;;;;15.85;2.65;;;14.70;99.90;;;;;;6153098;28;20043;-68
2022/06/19 00:43:59;;;;;;;17.13;2.65;;;14.70;99.90;;;;;;6152830;28;20493;-68
2022/06/19 00:47:08;;;;;;;15.32;2.58;;;14.60;99.90;;;;;;6144319;28;20055;-68
2022/06/19 00:50:23;;;;;;;12.65;2.40;;;14.60;99.90;;;;;;6128654;29;20060;-68
2022/06/19 00:53:31;;;;;;;17.80;2.97;;;14.60;99.90;;;;;;6128964;29;20056;-68
2022/06/19 00:56:33;;;;;;;22.75;2.78;;;14.60;99.90;;;;;;6133897;29;20052;-68
2022/06/19 00:59:37;;;;;;;17.33;2.60;;;14.60;99.90;;;;;;6131028;29;20067;-68
2022/06/19 01:02:41;;;;;;;16.23;2.78;;;14.60;99.90;;;;;;6152359;28;20051;-68
2022/06/19 01:05:45;;;;;;;15.80;3.15;;;14.60;99.90;;;;;;6151454;28;20512;-68
2022/06/19 01:08:47;;;;;;;18.73;2.90;;;14.60;99.90;;;;;;6151281;28;20488;-68
2022/06/19 01:11:49;;;;;;;15.77;2.90;;;14.60;99.90;;;;;;6151839;28;20051;-68
2022/06/19 01:14:57;;;;;;;17.73;2.70;;;14.60;99.90;;;;;;6152098;28;20142;-68
2022/06/19 01:18:07;;;;;;;14.23;2.55;;;14.60;99.90;;;;;;6151977;28;20408;-68
2022/06/19 01:21:16;;;;;;;15.52;2.55;;;14.60;99.90;;;;;;6151498;28;20050;-69
2022/06/19 01:24:29;;;;;;;17.90;3.05;;;14.60;99.90;;;;;;6152095;28;20102;-68
2022/06/19 01:30:59;;;;;;;15.15;2.20;;;14.50;99.90;;;;;;6150222;29;20047;-68
2022/06/19 01:34:26;;;;;;;15.82;2.78;;;14.60;99.90;;;;;;6151589;28;20047;-68
2022/06/19 01:37:28;;;;;;;15.18;2.53;;;14.60;99.90;;;;;;6147777;29;20074;-68
2022/06/19 01:40:33;;;;;;;10.40;2.13;;;14.50;99.90;;;;;;6126513;29;20067;-69
2022/06/19 01:43:36;;;;;;;14.23;2.22;;;14.50;99.90;;;;;;6127544;29;20070;-68
2022/06/19 01:46:39;;;;;;;13.20;2.30;;;14.60;99.90;;;;;;6127605;29;20056;-68
2022/06/19 01:49:46;;;;;;;15.60;2.53;;;14.50;99.90;;;;;;6126035;29;20055;-68
2022/06/19 01:52:51;;;;;;;13.32;2.30;;;14.60;99.90;;;;;;6127966;29;20047;-68
2022/06/19 01:55:54;;;;;;;17.00;2.40;;;14.60;99.90;;;;;;6137145;29;20056;-68
2022/06/19 01:59:06;;;;;;;11.75;2.10;;;14.60;99.90;;;;;;6129520;29;20044;-68
2022/06/19 02:02:11;;;;;;;15.43;2.60;;;14.60;99.90;;;;;;6139955;29;20064;-68
2022/06/19 02:05:13;;;;;;;15.48;2.90;;;14.50;99.90;;;;;;6127257;29;20059;-68
2022/06/19 02:08:17;;;;;;;18.95;3.00;;;14.50;99.90;;;;;;6126017;29;20054;-68
2022/06/19 02:11:19;;;;;;;16.45;2.90;;;14.40;99.90;;;;;;6126479;29;20051;-68
2022/06/19 02:14:23;;;;;;;21.23;3.55;;;14.40;99.90;;;;;;6126696;29;20067;-68
2022/06/19 02:17:31;;;;;;;22.95;3.70;;;14.40;99.90;;;;;;6126957;29;20047;-68
2022/06/19 02:20:33;;;;;;;16.00;2.95;;;14.40;99.90;;;;;;6127028;29;20044;-68
2022/06/19 02:23:36;;;;;;;23.25;3.72;;;14.40;99.90;;;;;;6127048;29;20054;-68
2022/06/19 02:26:39;;;;;;;;;;;14.40;99.90;;;;;;6126997;29;20051;-68
2022/06/19 02:29:43;;;;;;;21.35;3.10;;;14.50;99.90;;;;;;6126087;29;20359;-68
2022/06/19 02:32:46;;;;;;;;;;;14.50;99.90;;;;;;6127328;29;20080;-68
2022/06/19 02:35:48;;;;;;;14.85;3.15;;;14.50;99.90;;;;;;6126776;29;19958;-68
2022/06/19 02:38:50;;;;;;;21.25;3.40;;;14.50;99.90;;;;;;6126962;29;20048;-68
2022/06/19 02:42:01;;;;;;;21.55;3.30;;;14.50;99.90;;;;;;6149754;28;20055;-68
2022/06/19 02:45:10;;;;;;;17.50;2.55;;;14.60;99.90;;;;;;6149262;28;20506;-68
2022/06/19 02:48:19;;;;;;;20.27;3.00;;;14.60;99.90;;;;;;6126157;29;20528;-68
2022/06/19 02:51:21;;;;;;;17.48;3.20;;;14.60;99.90;;;;;;6140933;29;20059;-68
2022/06/19 02:54:23;;;;;;;15.60;2.65;;;14.60;99.90;;;;;;6145481;29;20164;-68
2022/06/19 02:57:26;;;;;;;19.73;3.30;;;14.50;99.90;;;;;;6149921;28;20066;-68
2022/06/19 03:00:30;;;;;;;16.67;3.73;;;14.50;99.90;;;;;;6140832;28;20436;-68
2022/06/19 03:03:36;;;;;;;19.10;3.33;;;14.60;99.90;;;;;;6126417;29;20095;-68
2022/06/19 03:06:38;;;;;;;21.00;2.95;;;14.50;99.90;;;;;;6126100;29;20048;-68
2022/06/19 03:09:40;;;;;;;16.75;2.92;;;14.50;99.90;;;;;;6125662;29;20059;-68
2022/06/19 03:12:42;;;;;;;19.02;2.88;;;14.60;99.90;;;;;;6125926;29;20063;-68
2022/06/19 03:15:45;;;;;;;19.52;3.22;;;14.50;99.90;;;;;;6125963;29;20548;-68
2022/06/19 03:18:47;;;;;;;13.52;2.97;;;14.50;99.90;;;;;;6124578;29;20051;-68
2022/06/19 03:21:49;;;;;;;18.45;3.05;;;14.40;99.90;;;;;;6140604;29;20081;-68
2022/06/19 03:24:51;;;;;;;14.77;2.65;;;14.50;99.90;;;;;;6149774;28;20134;-68
2022/06/19 03:27:53;;;;;;;19.60;3.50;;;14.40;99.90;;;;;;6148162;29;20054;-68
2022/06/19 03:30:57;;;;;;;17.33;3.05;;;14.40;99.90;;;;;;6148349;29;20062;-68
2022/06/19 03:33:59;;;;;;;20.10;3.70;;;14.40;99.90;;;;;;6148715;29;20412;-68
2022/06/19 03:37:01;;;;;;;19.40;3.05;;;14.40;99.90;;;;;;6141338;28;20152;-68
2022/06/19 03:40:03;;;;;;;20.85;3.22;;;14.30;99.90;;;;;;6134336;29;20058;-68
2022/06/19 03:43:05;;;;;;;24.55;3.13;;;14.30;99.90;;;;;;6149850;29;20424;-68
2022/06/19 03:46:13;;;;;;;15.45;2.70;;;14.20;99.90;;;;;;6147780;29;20056;-68
2022/06/19 03:49:15;;;;;;;18.20;3.00;;;14.10;99.90;;;;;;6149799;28;20055;-68
2022/06/19 03:52:17;;;;;;;21.50;2.95;;;14.10;99.90;;;;;;6150348;28;20059;-68
2022/06/19 03:55:19;;;;;;;21.15;3.50;;;14.10;99.90;;;;;;6133949;29;20047;-68
2022/06/19 03:58:21;;;;;;;16.05;2.83;;;14.10;99.90;;;;;;6132054;29;20073;-68
2022/06/19 04:01:27;;;;;;;20.02;3.00;;;14.10;99.90;;;;;;6144338;29;20102;-68
2022/06/19 04:04:29;;;;;;;18.40;2.80;;;14.10;99.90;;;;;;6153904;28;20056;-68
2022/06/19 04:07:31;;;;;;;12.68;2.40;;;14.10;99.90;;;;;;6153832;28;20054;-68
2022/06/19 04:10:33;;;;;;;19.58;2.80;;;14.00;99.90;;;;;;6152942;28;20058;-68
2022/06/19 04:13:35;;;;;;;14.85;2.40;;;14.00;99.90;;;;;;6153273;28;20141;-68
2022/06/19 04:16:39;;;;;;;17.85;2.90;;;14.00;99.90;;;;;;6153230;28;20046;-68
2022/06/19 04:19:41;;;;;;;15.27;2.55;;;14.00;99.90;;;;;;6152334;29;20059;-68
2022/06/19 04:22:43;;;;;;;14.15;2.58;;;14.10;99.90;;;;;;6152494;29;20051;-68
2022/06/19 04:25:45;;;;;;;8.15;1.90;;;14.20;99.90;;;;;;6153064;28;20055;-67
2022/06/19 04:28:47;;;;;;;12.00;2.60;;;14.30;99.90;;;;;;6152225;28;20051;-67
2022/06/19 04:31:51;;;;;;;16.35;2.67;;;14.30;99.90;;;;;;6152939;29;20055;-68
2022/06/19 04:34:53;;;;;;;14.30;2.38;;;14.30;99.90;;;;;;6153307;28;20054;-67
2022/06/19 04:37:55;;;;;;;15.68;2.10;;;14.20;99.90;;;;;;6152981;28;20050;-67
2022/06/19 04:40:57;;;;;;;14.43;2.92;;;14.20;99.90;;;;;;6152891;28;20058;-68
2022/06/19 04:44:00;;;;;;;12.70;2.60;;;14.10;99.90;;;;;;6152332;29;20055;-67
2022/06/19 04:47:05;;;;;;;17.42;3.13;;;14.00;99.90;;;;;;6127310;29;20048;-67
2022/06/19 04:50:08;;;;;;;15.32;3.10;;;14.00;99.90;;;;;;6136589;29;20130;-67
2022/06/19 04:53:10;;;;;;;;;;;13.90;99.90;;;;;;6152388;29;20055;-67
2022/06/19 04:56:14;;;;;;;14.57;2.67;;;13.90;99.90;;;;;;6152446;28;19923;-67
2022/06/19 04:59:16;;;;;;;17.58;2.45;;;13.90;99.90;;;;;;6152740;28;20050;-67
2022/06/19 05:02:20;;;;;;;14.98;2.70;;;13.90;99.90;;;;;;6140578;29;20051;-67
2022/06/19 05:05:22;;;;;;;19.48;3.03;;;13.90;99.90;;;;;;6126238;29;20055;-67
2022/06/19 05:08:24;;;;;;;15.15;2.40;;;13.90;99.90;;;;;;6127736;29;20055;-67
2022/06/19 05:11:28;;;;;;;16.63;2.58;;;13.90;99.90;;;;;;6140876;29;20059;-69
2022/06/19 05:14:30;;;;;;;14.98;2.88;;;14.00;99.90;;;;;;6150687;29;20130;-67
2022/06/19 05:17:34;;;;;;;18.48;2.40;;;14.10;99.90;;;;;;6150803;29;20055;-68
2022/06/19 05:20:37;;;;;;;12.23;2.25;;;14.10;99.90;;;;;;6129974;29;20052;-68
2022/06/19 05:23:40;;;;;;;12.33;1.83;;;14.10;99.90;;;;;;6128083;29;20078;-68
2022/06/19 05:26:42;;;;;;;11.80;2.15;;;14.00;99.90;;;;;;6127902;29;20460;-68
2022/06/19 05:29:44;;;;;;;10.57;1.98;;;14.00;99.90;;;;;;6126976;29;20477;-68
2022/06/19 05:32:48;;;;;;;11.85;1.90;;;14.00;99.90;;;;;;6128180;29;20058;-68
2022/06/19 05:35:50;;;;;;;11.70;2.30;;;14.00;99.90;;;;;;6127261;29;20554;-68
2022/06/19 05:38:52;;;;;;;11.68;1.88;;;14.10;99.90;;;;;;6127930;29;20047;-68
2022/06/19 05:41:54;;;;;;;20.00;2.60;;;14.10;99.90;;;;;;6137812;29;20051;-68
2022/06/19 05:44:56;;;;;;;14.35;2.03;;;14.10;99.90;;;;;;6151094;28;20531;-68
2022/06/19 05:47:59;;;;;;;13.70;2.60;;;14.10;99.90;;;;;;6150026;29;20182;-68
2022/06/19 05:51:04;;;;;;;13.75;2.63;;;14.10;99.90;;;;;;6151342;28;20055;-69
2022/06/19 05:54:06;;;;;;;14.45;2.83;;;14.10;99.90;;;;;;6150335;28;20051;-68
2022/06/19 05:57:08;;;;;;;15.70;2.88;;;14.10;99.90;;;;;;6150899;28;20437;-68
2022/06/19 06:00:11;;;;;;;15.02;2.67;;;14.00;99.90;;;;;;6150146;29;20416;-68
2022/06/19 06:03:16;;;;;;;11.93;2.35;;;14.00;99.90;;;;;;6150862;28;20500;-68
2022/06/19 06:06:20;;;;;;;19.25;3.05;;;14.00;99.90;;;;;;6150885;28;20061;-68
2022/06/19 06:09:22;;;;;;;14.00;2.88;;;13.90;99.90;;;;;;6148805;29;20062;-68
2022/06/19 06:12:24;;;;;;;18.58;2.75;;;13.90;99.90;;;;;;6129410;29;20063;-68
2022/06/19 06:15:26;;;;;;;15.02;2.60;;;13.90;99.90;;;;;;6125682;29;20051;-69
2022/06/19 06:18:30;;;;;;;15.80;2.60;;;13.80;99.90;;;;;;6126059;29;20441;-68
2022/06/19 06:21:32;;;;;;;15.63;2.63;;;13.80;99.90;;;;;;6125683;29;20063;-68
2022/06/19 06:24:34;;;;;;;19.02;2.95;;;13.80;99.90;;;;;;6136670;29;20052;-68
2022/06/19 06:27:37;;;;;;;12.23;2.20;;;13.80;99.90;;;;;;6138159;29;20134;-68
2022/06/19 06:30:39;;;;;;;14.35;2.30;;;13.80;99.90;;;;;;6126426;29;20051;-68
2022/06/19 06:33:42;;;;;;;18.63;3.03;;;13.80;99.90;;;;;;6127008;29;20054;-68
2022/06/19 06:36:44;;;;;;;15.15;3.10;;;13.80;99.90;;;;;;6126743;29;20052;-68
2022/06/19 06:39:46;;;;;;;17.30;2.63;;;13.80;99.90;;;;;;6125502;29;20052;-68
2022/06/19 06:42:51;;;;;;;20.02;2.88;;;13.90;99.90;;;;;;6144988;29;20043;-68
2022/06/19 06:45:53;;;;;;;16.48;3.13;;;13.90;99.90;;;;;;6125760;29;20055;-68
2022/06/19 06:48:59;;;;;;;15.68;2.53;;;13.80;99.90;;;;;;6146980;29;20047;-68
2022/06/19 06:52:01;;;;;;;18.95;3.00;;;13.80;99.90;;;;;;6150075;28;20091;-68
2022/06/19 06:55:04;;;;;;;18.48;2.85;;;13.80;99.90;;;;;;6149082;29;20570;-68
2022/06/19 06:58:06;;;;;;;17.83;3.17;;;13.80;99.90;;;;;;6148908;29;20058;-68
2022/06/19 07:01:09;;;;;;;20.33;2.95;;;13.80;99.90;;;;;;6139678;29;20047;-68
2022/06/19 07:04:13;;;;;;;18.95;3.05;;;13.80;99.90;;;;;;6126213;29;20051;-68
2022/06/19 07:07:15;;;;;;;;;;;13.80;99.90;;;;;;6127152;29;20048;-68
2022/06/19 07:10:17;;;;;;;17.52;2.65;;;13.80;99.90;;;;;;6125332;29;19929;-68
2022/06/19 07:13:18;;;;;;;15.70;2.63;;;13.80;99.90;;;;;;6141146;28;20063;-68
2022/06/19 07:16:20;;;;;;;23.70;3.97;;;13.80;99.90;;;;;;6149567;28;20051;-68
2022/06/19 07:19:23;;;;;;;22.38;3.10;;;13.90;99.90;;;;;;6129670;29;20465;-68
2022/06/19 07:22:25;;;;;;;23.08;3.45;;;13.90;99.90;;;;;;6125127;29;20425;-68
2022/06/19 07:25:27;;;;;;;23.77;3.55;;;14.00;99.90;;;;;;6144529;29;20051;-68
2022/06/19 07:28:30;;;;;;;21.35;2.92;;;14.00;99.90;;;;;;6153054;28;20556;-68
2022/06/19 07:31:31;;;;;;;18.73;3.08;;;14.10;99.90;;;;;;6153326;29;20066;-68
2022/06/19 07:34:35;;;;;;;17.83;2.88;;;14.00;99.90;;;;;;6153603;28;20057;-68
2022/06/19 07:37:37;;;;;;;17.17;2.90;;;14.00;99.90;;;;;;6154248;28;20073;-68
2022/06/19 07:40:39;;;;;;;17.42;2.63;;;13.90;99.90;;;;;;6154155;28;20398;-68
2022/06/19 07:43:43;;;;;;;22.58;3.20;;;13.90;99.90;;;;;;6154112;28;20179;-68
2022/06/19 07:50:13;;;;;;;16.10;2.80;;;13.90;99.90;;;;;;6130146;29;20058;-68
2022/06/19 07:53:16;;;;;;;18.15;3.03;;;14.00;99.90;;;;;;6146741;29;20153;-69
2022/06/19 07:56:18;;;;;;;12.80;2.33;;;14.00;99.90;;;;;;6152828;29;20594;-68
2022/06/19 07:59:19;;;;;;;18.15;2.92;;;14.00;99.90;;;;;;6153008;29;20519;-68
2022/06/19 08:02:24;;;;;;;15.02;2.58;;;14.00;99.90;;;;;;6152384;29;20054;-68
2022/06/19 08:05:29;;;;;;;17.27;2.38;;;14.10;99.90;;;;;;6152698;29;20059;-68
2022/06/19 08:08:33;;;;;;;19.83;2.78;;;14.00;99.90;;;;;;6151388;29;20051;-68
2022/06/19 08:11:36;;;;;;;13.98;2.28;;;14.00;99.90;;;;;;6153560;28;20051;-68
2022/06/19 08:14:39;;;;;;;16.25;3.15;;;14.10;99.90;;;;;;6153148;28;20125;-68
2022/06/19 08:17:40;;;;;;;13.48;3.25;;;14.10;99.90;;;;;;6151968;29;20141;-70
2022/06/19 08:20:44;;;;;;;16.60;2.90;;;14.20;99.90;;;;;;6153311;28;20053;-68
2022/06/19 08:23:46;;;;;;;;;;;14.20;99.90;;;;;;6147919;29;20146;-68
2022/06/19 08:26:48;;;;;;;21.83;2.63;;;14.20;99.90;;;;;;6143831;29;19923;-68
2022/06/19 08:29:50;;;;;;;14.23;2.58;;;14.20;99.90;;;;;;6151948;29;20047;-68
2022/06/19 08:32:53;;;;;;;14.57;2.53;;;14.20;99.90;;;;;;6151866;29;20062;-67
2022/06/19 08:36:00;;;;;;;18.80;2.97;;;14.20;99.90;;;;;;6153050;28;20078;-68
2022/06/19 08:39:06;;;;;;;15.45;2.95;;;14.20;99.90;;;;;;6151911;28;20421;-68
2022/06/19 08:42:39;;;;;;;21.58;3.00;;;14.20;99.90;;;;;;6151908;28;20046;-68
2022/06/19 08:45:49;;;;;;;14.50;2.20;;;14.20;99.90;;;;;;6152718;28;20054;-67
2022/06/19 08:49:17;;;;;;;13.77;2.30;;;14.30;99.90;;;;;;6151717;29;20437;-67
2022/06/19 08:52:33;;;;;;;15.48;2.30;;;14.30;99.90;;;;;;6152748;28;20051;-67
2022/06/19 08:55:44;;;;;;;14.25;2.67;;;14.40;99.90;;;;;;6153122;28;20055;-67
2022/06/19 08:58:55;;;;;;;14.05;2.47;;;14.50;99.90;;;;;;6151381;29;20478;-67
2022/06/19 09:02:04;;;;;;;13.90;2.13;;;14.60;99.90;;;;;;6151828;28;20131;-67
2022/06/19 09:08:53;;;;;;;13.90;2.72;;;14.70;99.90;;;;;;6150977;29;20098;-68
2022/06/19 09:12:04;;;;;;;12.85;2.17;;;14.80;99.90;;;;;;6151110;29;20047;-68
2022/06/19 09:15:12;;;;;;;10.95;2.30;;;14.80;99.90;;;;;;6150737;29;20074;-69
2022/06/19 09:18:20;;;;;;;15.55;3.72;;;14.80;99.90;;;;;;6133992;28;20055;-67
2022/06/19 09:21:33;;;;;;;16.25;3.50;;;14.90;99.90;;;;;;6128022;29;20079;-67
2022/06/19 09:24:57;;;;;;;12.77;3.45;;;14.90;99.90;;;;;;6139851;29;20062;-68
2022/06/19 09:28:03;;;;;;;15.20;2.65;;;15.00;99.90;;;;;;6128318;29;20048;-67
2022/06/19 09:31:11;;;;;;;13.00;2.80;;;14.90;99.90;;;;;;6128403;29;20047;-67
2022/06/19 09:34:18;;;;;;;9.27;2.65;;;14.80;99.90;;;;;;6128054;29;20052;-67
2022/06/19 09:37:26;;;;;;;11.00;1.95;;;14.70;99.90;;;;;;6127932;29;20063;-67
2022/06/19 09:40:32;;;;;;;12.30;2.80;;;14.60;99.90;;;;;;6127523;29;20048;-67
2022/06/19 09:43:38;;;;;;;13.82;2.08;;;14.60;99.90;;;;;;6129438;29;20047;-67
2022/06/19 09:46:45;;;;;;;12.98;2.03;;;14.60;99.90;;;;;;6127198;29;20051;-68
2022/06/19 09:49:52;;;;;;;9.93;1.77;;;14.70;99.90;;;;;;6127350;29;20051;-68
2022/06/19 09:52:58;;;;;;;10.88;1.67;;;14.70;99.90;;;;;;6127943;29;20056;-67
2022/06/19 09:56:20;;;;;;;9.00;1.60;;;14.80;99.90;;;;;;6128026;29;20059;-67
2022/06/19 09:59:26;;;;;;;9.35;1.60;;;14.80;99.90;;;;;;6127287;29;20048;-67
2022/06/19 10:02:36;;;;;;;9.63;1.70;;;14.80;99.90;;;;;;6127675;29;20051;-67
2022/06/19 10:05:42;;;;;;;9.25;1.65;;;14.90;99.90;;;;;;6126460;29;20055;-67
2022/06/19 10:08:50;;;;;;;7.82;1.23;;;14.80;99.90;;;;;;6132288;29;20055;-68
2022/06/19 10:11:59;;;;;;;7.22;1.35;;;14.90;99.90;;;;;;6142089;29;20056;-68
2022/06/19 10:15:06;;;;;;;8.43;1.30;;;14.80;99.90;;;;;;6143037;29;20556;-67
2022/06/19 10:18:14;;;;;;;8.55;1.50;;;14.80;99.90;;;;;;6150912;28;20058;-68
2022/06/19 10:25:01;;;;;;;7.82;1.42;;;14.90;99.90;;;;;;6140883;29;20112;-67
2022/06/19 10:28:19;;;;;;;6.07;1.13;;;14.90;99.90;;;;;;6126852;29;20099;-68
2022/06/19 10:31:36;;;;;;;7.57;1.35;;;15.00;99.90;;;;;;6125856;29;20485;-68
2022/06/19 10:34:57;;;;;;;4.93;1.10;;;15.10;99.90;;;;;;6126356;29;20568;-68
2022/06/19 10:38:16;;;;;;;7.53;1.58;;;15.20;99.90;;;;;;6125415;29;20180;-67
2022/06/19 10:45:08;;;;;;;9.95;1.55;;;15.40;99.90;;;;;;6143795;28;20077;-68
2022/06/19 10:48:34;;;;;;;3.90;1.20;;;15.30;99.90;;;;;;6149818;28;20058;-67
2022/06/19 10:51:51;;;;;;;7.20;1.20;;;15.30;99.90;;;;;;6146135;28;20066;-68
2022/06/19 10:55:06;;;;;;;7.50;1.00;;;15.30;99.90;;;;;;6149612;28;20051;-67
2022/06/19 10:58:15;;;;;;;5.32;1.10;;;15.30;99.90;;;;;;6148573;28;20047;-67
2022/06/19 11:04:54;;;;;;;4.20;1.20;;;15.30;99.90;;;;;;6125988;29;20136;-67
2022/06/19 11:07:56;;;;;;;7.88;1.17;;;15.20;99.90;;;;;;6124734;29;20420;-67
2022/06/19 11:11:01;;;;;;;7.03;1.45;;;15.20;99.90;;;;;;6125094;29;20075;-67
2022/06/19 11:14:08;;;;;;;4.68;1.30;;;15.20;99.90;;;;;;6134437;29;20063;-69
2022/06/19 11:17:16;;;;;;;5.25;0.82;;;15.30;99.90;;;;;;6148584;28;20485;-67
2022/06/19 11:20:28;;;;;;;5.00;1.23;;;15.30;99.90;;;;;;6149729;28;20051;-67
2022/06/19 11:23:34;;;;;;;7.03;1.23;;;15.30;99.90;;;;;;6141621;28;20052;-67
2022/06/19 11:26:38;;;;;;;8.55;1.20;;;15.30;99.90;;;;;;6135182;28;20147;-67
2022/06/19 11:29:46;;;;;;;22.17;11.35;;;15.30;99.90;;;;;;6125323;29;20504;-67
2022/06/19 11:32:51;;;;;;;4.75;1.08;;;15.30;99.90;;;;;;6124709;29;20066;-67
2022/06/19 11:35:57;;;;;;;36.92;21.65;;;15.30;99.90;;;;;;6125564;29;20068;-67
2022/06/19 11:39:00;;;;;;;19.23;11.93;;;15.40;99.90;;;;;;6124274;29;20146;-67
2022/06/19 11:42:31;;;;;;;17.08;11.55;;;15.40;99.90;;;;;;6138573;29;20052;-67
2022/06/19 11:45:35;;;;;;;5.63;0.70;;;15.30;99.90;;;;;;6139789;28;20047;-67
2022/06/19 11:48:39;;;;;;;7.43;1.23;;;15.30;99.90;;;;;;6149132;28;20047;-67
2022/06/19 11:51:44;;;;;;;5.03;1.00;;;15.30;99.90;;;;;;6126723;29;20056;-68
2022/06/19 11:54:49;;;;;;;6.88;1.10;;;15.30;99.90;;;;;;6125598;29;20270;-67
2022/06/19 11:57:53;;;;;;;5.22;0.88;;;15.20;99.90;;;;;;6124120;29;20056;-67
2022/06/19 12:01:03;;;;;;;5.93;1.52;;;15.20;99.90;;;;;;6125055;29;20089;-67
2022/06/19 12:04:18;;;;;;;10.75;6.95;;;15.20;99.90;;;;;;6123697;29;20047;-67
2022/06/19 12:07:23;;;;;;;3.28;0.90;;;15.30;99.90;;;;;;6124596;29;20051;-67
2022/06/19 12:10:28;;;;;;;3.10;1.23;;;15.30;99.90;;;;;;6125268;29;20044;-67
2022/06/19 12:13:32;;;;;;;4.05;0.90;;;15.30;99.90;;;;;;6129880;29;20059;-67
2022/06/19 12:16:35;;;;;;;7.65;1.50;;;15.20;99.90;;;;;;6152878;28;20043;-67
2022/06/19 12:19:38;;;;;;;4.13;1.23;;;15.20;99.90;;;;;;6153507;29;20047;-67
2022/06/19 12:22:45;;;;;;;3.50;0.98;;;15.20;99.90;;;;;;6151743;29;20072;-67
2022/06/19 12:25:50;;;;;;;2.83;0.63;;;15.20;99.90;;;;;;6131943;29;20055;-66
2022/06/19 12:28:58;;;;;;;4.50;1.70;;;15.10;99.90;;;;;;6152055;28;20058;-69
2022/06/19 12:32:06;;;;;;;4.78;1.40;;;15.00;99.90;;;;;;6137847;29;20078;-69
2022/06/19 12:35:18;;;;;;;3.85;1.10;;;15.00;99.90;;;;;;6151959;29;20063;-68
2022/06/19 12:38:23;;;;;;;4.28;0.82;;;15.00;99.90;;;;;;6152920;28;20043;-68
2022/06/19 12:41:35;;;;;;;2.88;0.90;;;15.00;99.90;;;;;;6152316;29;20047;-68
2022/06/19 12:44:59;;;;;;;4.28;1.00;;;15.00;99.90;;;;;;6152877;28;20124;-69
2022/06/19 12:48:13;;;;;;;3.80;1.10;;;15.00;99.90;;;;;;6152542;28;20515;-68
2022/06/19 12:51:21;;;;;;;5.10;1.90;;;15.00;99.90;;;;;;6152458;28;20058;-69
2022/06/19 12:54:58;;;;;;;8.57;4.65;;;15.00;99.90;;;;;;6152582;28;20058;-69
2022/06/19 12:58:20;;;;;;;5.38;1.95;;;15.20;99.90;;;;;;6142125;28;20051;-69
2022/06/19 13:01:36;;;;;;;5.25;2.45;;;15.30;99.90;;;;;;6128672;29;20044;-68
2022/06/19 13:04:50;;;;;;;4.75;1.25;;;15.30;99.90;;;;;;6128072;29;20052;-68
2022/06/19 13:08:03;;;;;;;4.82;2.05;;;15.50;99.90;;;;;;6128051;29;20043;-67
2022/06/19 13:11:18;;;;;;;5.03;4.40;;;15.60;99.90;;;;;;6128362;29;20067;-68
2022/06/19 13:14:49;;;;;;;3.85;0.88;;;15.50;99.90;;;;;;6130561;29;20060;-68
2022/06/19 13:18:00;;;;;;;4.75;1.15;;;15.50;99.90;;;;;;6151454;28;20051;-67
2022/06/19 13:21:11;;;;;;;3.70;1.42;;;15.60;99.90;;;;;;6150629;29;20055;-67
2022/06/19 13:24:30;;;;;;;2.30;0.70;;;15.60;99.90;;;;;;6150155;28;20047;-67
2022/06/19 13:27:52;;;;;;;3.40;0.88;;;15.60;99.90;;;;;;6151721;28;20043;-66
2022/06/19 13:30:59;;;;;;;3.83;0.73;;;15.60;99.90;;;;;;6151800;28;20051;-69
2022/06/19 13:34:16;;;;;;;3.50;0.80;;;15.50;99.90;;;;;;6127660;29;20056;-66
2022/06/19 13:37:37;;;;;;;2.85;0.93;;;15.40;99.90;;;;;;6133732;29;20427;-67
2022/06/19 13:40:46;;;;;;;5.05;0.85;;;15.40;99.90;;;;;;6151454;28;20059;-67
2022/06/19 13:44:01;;;;;;;5.30;1.05;;;15.40;99.90;;;;;;6151071;29;20047;-67
2022/06/19 13:47:10;;;;;;;3.80;0.80;;;15.40;99.90;;;;;;6155256;29;20070;-68
2022/06/19 13:50:20;;;;;;;5.47;1.30;;;15.40;99.90;;;;;;6131843;29;20044;-68
2022/06/19 13:53:30;;;;;;;4.80;1.30;;;15.40;99.90;;;;;;6127364;29;20052;-68
2022/06/19 13:56:42;;;;;;;7.40;1.13;;;15.40;99.90;;;;;;6126033;29;20714;-68
2022/06/19 13:59:58;;;;;;;6.18;1.27;;;15.50;99.90;;;;;;6125725;29;20069;-68
2022/06/19 14:04:45;;;;;;;6.15;0.70;;;15.50;99.90;;;;;;6125717;29;20062;-68
2022/06/19 14:07:03;;;;;;;3.75;1.05;;;15.60;99.90;;;;;;6133153;29;20138;-67
2022/06/19 14:10:19;;;;;;;4.85;1.15;;;15.70;99.90;;;;;;6125833;29;20524;-67
2022/06/19 14:13:29;;;;;;;4.57;1.38;;;15.80;99.90;;;;;;6125074;29;20056;-68
2022/06/19 14:16:36;;;;;;;5.30;1.38;;;16.10;99.90;;;;;;6146852;29;20408;-67
2022/06/19 14:19:44;;;;;;;6.82;2.28;;;16.40;99.90;;;;;;6149445;29;20420;-67
2022/06/19 14:23:00;;;;;;;5.15;1.40;;;16.50;99.90;;;;;;6142521;29;20051;-68
2022/06/19 14:26:07;;;;;;;4.30;1.55;;;16.40;99.90;;;;;;6125631;29;20047;-67
2022/06/19 14:29:36;;;;;;;4.90;1.80;;;16.30;99.90;;;;;;6127422;29;20051;-68
2022/06/19 14:32:56;;;;;;;5.97;2.17;;;16.30;99.90;;;;;;6137404;29;20466;-68
2022/06/19 14:36:05;;;;;;;5.07;1.77;;;16.30;99.90;;;;;;6125847;29;20051;-68
2022/06/19 14:39:38;;;;;;;3.75;1.20;;;16.40;99.90;;;;;;6125436;29;20052;-68
2022/06/19 14:42:59;;;;;;;3.55;1.10;;;16.40;99.90;;;;;;6126427;29;20413;-68
2022/06/19 14:46:51;;;;;;;3.80;1.00;;;16.50;99.90;;;;;;6128017;29;20055;-67
2022/06/19 14:50:24;;;;;;;5.47;1.20;;;16.90;99.90;;;;;;6150062;28;20424;-68
2022/06/19 14:53:48;;;;;;;4.20;0.90;;;16.90;99.90;;;;;;6149942;28;20511;-68
2022/06/19 14:57:13;;;;;;;3.40;1.00;;;16.80;99.90;;;;;;6142748;28;20528;-68
2022/06/19 15:00:24;;;;;;;5.75;1.85;;;16.90;99.90;;;;;;6125965;29;20516;-68
2022/06/19 15:03:38;;;;;;;3.60;0.90;;;17.20;99.90;;;;;;6125990;29;20394;-68
2022/06/19 15:06:47;;;;;;;5.53;1.00;;;17.50;99.90;;;;;;6125072;29;20078;-68
2022/06/19 15:09:52;;;;;;;4.63;1.23;;;17.70;99.90;;;;;;6124663;29;20051;-69
2022/06/19 15:13:14;;;;;;;4.88;1.30;;;17.70;99.90;;;;;;6126036;29;20098;-68
2022/06/19 15:16:21;;;;;;;5.32;1.20;;;17.70;99.90;;;;;;6149195;28;20097;-68
2022/06/19 15:19:38;;;;;;;4.45;1.00;;;17.50;99.90;;;;;;6149319;28;20066;-68
2022/06/19 15:22:41;;;;;;;6.20;1.35;;;17.60;99.90;;;;;;6148618;29;20057;-68
2022/06/19 15:25:44;;;;;;;6.53;1.10;;;17.60;99.90;;;;;;6148502;29;20105;-68
2022/06/19 15:29:02;;;;;;;6.13;1.13;;;17.50;99.90;;;;;;6147851;29;20063;-68
2022/06/19 15:32:56;;;;;;;6.07;1.00;;;17.30;99.90;;;;;;6148707;28;20082;-68
2022/06/19 15:36:02;;;;;;;7.57;1.42;;;17.10;99.90;;;;;;6140476;29;20420;-68
2022/06/19 15:39:33;;;;;;;7.80;1.45;;;17.00;99.90;;;;;;6124507;29;20064;-68
2022/06/19 15:42:36;;;;;;;9.70;1.50;;;16.90;99.90;;;;;;6131842;29;20492;-68
2022/06/19 15:45:52;;;;;;;6.20;1.48;;;16.70;99.90;;;;;;6132047;28;20043;-68
2022/06/19 15:48:54;;;;;;;7.78;1.80;;;16.60;99.90;;;;;;6135270;28;20063;-68
2022/06/19 15:51:59;;;;;;;11.02;1.90;;;16.60;99.90;;;;;;6129443;29;20051;-68
2022/06/19 15:55:10;;;;;;;8.32;1.70;;;16.50;99.90;;;;;;6128680;29;20052;-68
2022/06/19 15:58:18;;;;;;;11.27;2.10;;;16.40;99.90;;;;;;6128731;29;20066;-67
2022/06/19 16:01:26;;;;;;;8.95;1.88;;;16.30;99.90;;;;;;6128881;29;20055;-67
2022/06/19 16:04:33;;;;;;;6.07;1.38;;;16.20;99.90;;;;;;6130642;29;20052;-67
2022/06/19 16:07:41;;;;;;;6.68;1.45;;;16.20;99.90;;;;;;6129954;29;20047;-68
2022/06/19 16:10:51;;;;;;;9.38;1.92;;;16.00;99.90;;;;;;6130221;29;20052;-68
2022/06/19 16:14:00;;;;;;;10.70;2.22;;;15.90;99.90;;;;;;6128257;29;20063;-68
2022/06/19 16:17:21;;;;;;;8.30;1.63;;;15.90;99.90;;;;;;6148589;29;20051;-68
2022/06/19 16:20:26;;;;;;;7.28;1.48;;;15.90;99.90;;;;;;6152287;29;20082;-69
2022/06/19 16:23:37;;;;;;;7.97;1.75;;;15.90;99.90;;;;;;6152453;29;20398;-70
2022/06/19 16:26:41;;;;;;;7.03;1.42;;;15.90;99.90;;;;;;6153528;28;20059;-68
2022/06/19 16:29:44;;;;;;;9.02;1.65;;;15.80;99.90;;;;;;6153138;28;20047;-69
2022/06/19 16:32:51;;;;;;;7.22;1.65;;;15.90;99.90;;;;;;6152791;28;20043;-67